createdAt,value
2019-03-24T00:00:20.615Z,36.65
2019-03-24T00:02:51.827Z,33.53
2019-03-24T00:05:21.324Z,32.60
2019-03-24T00:07:50.656Z,39.35
2019-03-24T00:10:20.026Z,29.87
2019-03-24T00:12:49.455Z,31.90
2019-03-24T00:15:26.049Z,28.73
2019-03-24T00:17:49.940Z,30.00
2019-03-24T00:20:19.369Z,46.70
2019-03-24T00:22:48.788Z,30.85
2019-03-24T00:25:18.224Z,41.65
2019-03-24T00:27:47.591Z,32.23
2019-03-24T00:30:17.563Z,29.60
2019-03-24T00:32:47.047Z,42.80
2019-03-24T00:35:16.455Z,38.03
2019-03-24T00:37:45.824Z,32.00
2019-03-24T00:40:15.311Z,31.33
2019-03-24T00:42:44.744Z,32.23
2019-03-24T00:45:14.247Z,37.37
2019-03-24T00:47:43.687Z,21.90
2019-03-24T00:50:13.161Z,29.98
2019-03-24T00:52:42.607Z,30.90
2019-03-24T00:55:12.154Z,24.75
2019-03-24T00:57:41.491Z,32.60
2019-03-24T01:00:11.999Z,31.33
2019-03-24T01:02:41.433Z,34.90
2019-03-24T01:05:11.219Z,30.30
2019-03-24T01:07:40.717Z,21.57
2019-03-24T01:10:13.045Z,25.72
2019-03-24T01:12:42.427Z,35.27
2019-03-24T01:15:11.988Z,23.47
2019-03-24T01:17:41.328Z,40.20
2019-03-24T01:20:10.917Z,37.22
2019-03-24T01:22:41.433Z,33.58
2019-03-24T01:25:10.955Z,33.30
2019-03-24T01:27:40.349Z,27.82
2019-03-24T01:30:09.922Z,28.30
2019-03-24T01:32:39.283Z,37.83
2019-03-24T01:35:08.862Z,35.52
2019-03-24T01:37:39.311Z,25.00
2019-03-24T01:40:09.406Z,32.98
2019-03-24T01:42:38.744Z,30.37
2019-03-24T01:45:09.867Z,30.40
2019-03-24T01:47:39.263Z,31.60
2019-03-24T01:50:09.152Z,29.67
2019-03-24T01:52:38.584Z,42.50
2019-03-24T01:55:08.279Z,28.87
2019-03-24T01:57:37.712Z,33.98
2019-03-24T02:00:09.992Z,35.98
2019-03-24T02:02:39.387Z,25.30
2019-03-24T02:05:08.901Z,29.77
2019-03-24T02:07:38.304Z,32.67
2019-03-24T02:10:09.563Z,35.17
2019-03-24T02:12:38.984Z,35.70
2019-03-24T02:15:09.296Z,31.52
2019-03-24T02:17:39.636Z,24.23
2019-03-24T02:20:12.565Z,31.12
2019-03-24T02:22:41.911Z,39.63
2019-03-24T02:25:11.638Z,35.50
2019-03-24T02:27:41.049Z,22.32
2019-03-24T02:30:10.954Z,35.00
2019-03-24T02:32:40.308Z,30.70
2019-03-24T02:35:10.470Z,34.05
2019-03-24T02:37:39.908Z,27.17
2019-03-24T02:40:09.989Z,35.75
2019-03-24T02:42:39.488Z,29.85
2019-03-24T02:45:09.432Z,34.08
2019-03-24T02:47:38.859Z,33.05
2019-03-24T02:50:09.272Z,29.45
2019-03-24T02:52:38.625Z,33.65
2019-03-24T02:55:08.807Z,31.82
2019-03-24T02:57:38.228Z,29.50
2019-03-24T03:00:09.734Z,30.40
2019-03-24T03:02:39.229Z,28.15
2019-03-24T03:05:09.280Z,38.23
2019-03-24T03:07:38.745Z,25.40
2019-03-24T03:10:08.712Z,37.53
2019-03-24T03:12:40.879Z,36.60
2019-03-24T03:17:40.109Z,26.00
2019-03-24T03:20:10.138Z,30.70
2019-03-24T03:22:39.653Z,34.10
2019-03-24T03:25:09.378Z,28.17
2019-03-24T03:27:38.797Z,33.92
2019-03-24T03:30:08.949Z,24.02
2019-03-24T03:32:38.420Z,34.92
2019-03-24T03:35:08.417Z,23.07
2019-03-24T03:37:37.905Z,43.20
2019-03-24T03:40:09.161Z,29.87
2019-03-24T03:42:39.695Z,38.10
2019-03-24T03:45:11.177Z,37.70
2019-03-24T03:47:40.673Z,26.82
2019-03-24T03:50:10.138Z,31.65
2019-03-24T03:52:39.563Z,33.13
2019-03-24T03:55:09.159Z,34.83
2019-03-24T03:57:38.556Z,28.38
2019-03-24T04:00:09.321Z,45.37
2019-03-24T04:02:38.683Z,31.97
2019-03-24T04:05:09.448Z,29.10
2019-03-24T04:07:38.789Z,30.62
2019-03-24T04:10:08.147Z,33.00
2019-03-24T04:12:37.513Z,43.45
2019-03-24T04:15:07.771Z,36.03
2019-03-24T04:17:38.412Z,29.48
2019-03-24T04:20:08.459Z,30.92
2019-03-24T04:22:37.848Z,41.04
2019-03-24T04:25:07.334Z,33.48
2019-03-24T04:27:36.762Z,42.27
2019-03-24T04:30:07.427Z,20.80
2019-03-24T04:32:36.856Z,44.63
2019-03-24T04:35:08.142Z,36.42
2019-03-24T04:37:39.112Z,34.98
2019-03-24T04:40:09.253Z,35.85
2019-03-24T04:42:38.677Z,28.30
2019-03-24T04:45:09.201Z,33.28
2019-03-24T04:47:38.570Z,30.80
2019-03-24T04:50:08.772Z,31.60
2019-03-24T04:52:38.124Z,29.70
2019-03-24T04:55:08.168Z,33.92
2019-03-24T04:57:37.522Z,33.42
2019-03-24T05:00:08.520Z,38.90
2019-03-24T05:02:38.117Z,38.00
2019-03-24T05:05:08.205Z,29.10
2019-03-24T05:07:38.284Z,41.48
2019-03-24T05:10:09.259Z,46.48
2019-03-24T05:12:38.671Z,40.60
2019-03-24T05:15:08.185Z,29.12
2019-03-24T05:17:37.512Z,33.60
2019-03-24T05:20:07.439Z,42.55
2019-03-24T05:22:36.800Z,35.38
2019-03-24T05:25:06.326Z,30.82
2019-03-24T05:27:35.668Z,31.02
2019-03-24T05:30:07.009Z,43.40
2019-03-24T05:32:36.399Z,36.17
2019-03-24T05:35:06.902Z,33.60
2019-03-24T05:37:36.245Z,28.12
2019-03-24T05:40:06.205Z,30.97
2019-03-24T05:42:35.556Z,30.00
2019-03-24T05:45:06.969Z,38.10
2019-03-24T05:47:37.287Z,29.73
2019-03-24T05:50:09.677Z,39.20
2019-03-24T05:52:39.099Z,28.20
2019-03-24T05:55:08.524Z,35.17
2019-03-24T05:57:37.871Z,29.07
2019-03-24T06:00:08.761Z,28.67
2019-03-24T06:02:38.231Z,42.13
2019-03-24T06:05:07.721Z,32.85
2019-03-24T06:07:37.203Z,34.15
2019-03-24T06:10:07.990Z,31.90
2019-03-24T06:15:09.806Z,38.05
2019-03-24T06:17:47.449Z,35.28
2019-03-24T06:20:10.521Z,39.07
2019-03-24T06:22:40.969Z,40.67
2019-03-24T06:25:10.449Z,26.28
2019-03-24T06:27:39.783Z,38.42
2019-03-24T06:30:09.420Z,37.60
2019-03-24T06:32:38.777Z,31.97
2019-03-24T06:35:08.264Z,23.60
2019-03-24T06:37:37.628Z,41.95
2019-03-24T06:40:07.551Z,40.63
2019-03-24T06:42:36.918Z,36.23
2019-03-24T06:45:07.205Z,36.05
2019-03-24T06:47:36.576Z,44.58
2019-03-24T06:50:07.840Z,31.33
2019-03-24T06:52:37.180Z,37.93
2019-03-24T06:55:06.799Z,30.60
2019-03-24T06:57:38.101Z,33.08
2019-03-24T07:00:10.573Z,35.63
2019-03-24T07:02:39.909Z,28.80
2019-03-24T07:05:09.702Z,31.27
2019-03-24T07:07:39.136Z,34.95
2019-03-24T07:10:09.820Z,49.13
2019-03-24T07:12:39.314Z,35.45
2019-03-24T07:15:09.703Z,36.63
2019-03-24T07:17:39.218Z,38.57
2019-03-24T07:20:09.008Z,43.42
2019-03-24T07:22:38.469Z,48.13
2019-03-24T07:25:08.307Z,33.08
2019-03-24T07:27:37.796Z,30.68
2019-03-24T07:30:10.797Z,37.88
2019-03-24T07:32:40.391Z,30.40
2019-03-24T07:35:10.109Z,44.55
2019-03-24T07:37:39.537Z,32.28
2019-03-24T07:40:09.954Z,32.08
2019-03-24T07:42:39.526Z,35.45
2019-03-24T07:45:09.314Z,45.48
2019-03-24T07:47:38.674Z,42.38
2019-03-24T07:50:09.343Z,35.35
2019-03-24T07:52:38.755Z,37.90
2019-03-24T07:55:08.975Z,48.17
2019-03-24T07:57:38.463Z,36.58
2019-03-24T08:00:10.236Z,33.92
2019-03-24T08:02:50.988Z,44.25
2019-03-24T08:05:16.544Z,32.67
2019-03-24T08:07:45.883Z,28.00
2019-03-24T08:10:15.388Z,44.73
2019-03-24T08:12:44.858Z,36.00
2019-03-24T08:15:14.399Z,40.33
2019-03-24T08:17:43.775Z,43.85
2019-03-24T08:20:13.281Z,38.63
2019-03-24T08:22:42.711Z,34.50
2019-03-24T08:25:12.284Z,40.33
2019-03-24T08:27:41.893Z,43.17
2019-03-24T08:30:11.761Z,44.50
2019-03-24T08:32:41.150Z,37.80
2019-03-24T08:35:10.594Z,37.36
2019-03-24T08:37:40.289Z,31.35
2019-03-24T08:40:09.730Z,31.87
2019-03-24T08:42:39.348Z,28.80
2019-03-24T08:45:13.164Z,33.55
2019-03-24T08:47:42.507Z,31.23
2019-03-24T08:50:12.106Z,26.80
2019-03-24T08:52:43.323Z,30.62
2019-03-24T08:55:12.971Z,30.12
2019-03-24T08:57:42.803Z,32.83
2019-03-24T09:00:12.325Z,21.15
2019-03-24T09:02:41.782Z,23.92
2019-03-24T09:05:11.522Z,34.67
2019-03-24T09:07:41.398Z,23.20
2019-03-24T09:10:11.697Z,30.78
2019-03-24T09:12:41.145Z,24.43
2019-03-24T09:15:10.692Z,23.84
2019-03-24T09:17:41.299Z,27.02
2019-03-24T09:20:11.535Z,21.77
2019-03-24T09:22:41.089Z,33.87
2019-03-24T09:25:10.628Z,21.65
2019-03-24T09:27:40.060Z,21.37
2019-03-24T09:30:29.711Z,28.07
2019-03-24T09:32:59.083Z,22.87
2019-03-24T09:35:28.455Z,23.42
2019-03-24T09:37:58.114Z,20.35
2019-03-24T09:40:29.436Z,21.35
2019-03-24T09:42:59.677Z,23.62
2019-03-24T09:45:30.301Z,23.22
2019-03-24T09:48:00.491Z,26.60
2019-03-24T09:50:30.087Z,18.62
2019-03-24T09:52:59.801Z,25.65
2019-03-24T09:55:29.276Z,25.90
2019-03-24T09:57:58.839Z,23.90
2019-03-24T10:00:28.388Z,23.70
2019-03-24T10:02:57.810Z,21.77
2019-03-24T10:05:27.305Z,17.70
2019-03-24T10:07:56.723Z,20.45
2019-03-24T10:10:26.184Z,24.92
2019-03-24T10:12:55.695Z,20.05
2019-03-24T10:15:25.126Z,18.00
2019-03-24T10:17:54.573Z,21.85
2019-03-24T10:20:23.955Z,15.95
2019-03-24T10:22:53.541Z,25.20
2019-03-24T10:25:22.890Z,21.87
2019-03-24T10:27:52.414Z,27.77
2019-03-24T10:30:21.859Z,27.67
2019-03-24T10:32:51.363Z,28.00
2019-03-24T10:35:20.702Z,20.77
2019-03-24T10:37:50.305Z,28.10
2019-03-24T10:40:28.186Z,27.70
2019-03-24T10:42:50.977Z,23.97
2019-03-24T10:45:20.467Z,25.40
2019-03-24T10:47:49.830Z,18.37
2019-03-24T10:50:20.873Z,23.17
2019-03-24T10:52:50.481Z,21.60
2019-03-24T10:55:20.063Z,18.33
2019-03-24T10:57:49.560Z,28.35
2019-03-24T11:00:27.618Z,28.17
2019-03-24T11:02:57.000Z,27.00
2019-03-24T11:05:26.345Z,21.25
2019-03-24T11:07:55.783Z,18.15
2019-03-24T11:10:25.127Z,25.80
2019-03-24T11:12:54.493Z,22.10
2019-03-24T11:15:23.855Z,31.80
2019-03-24T11:17:53.296Z,27.60
2019-03-24T11:20:22.725Z,33.40
2019-03-24T11:22:52.104Z,18.25
2019-03-24T11:25:21.526Z,20.23
2019-03-24T11:27:50.894Z,20.57
2019-03-24T11:30:20.238Z,24.60
2019-03-24T11:32:50.828Z,14.83
2019-03-24T11:35:20.246Z,19.12
2019-03-24T11:37:50.104Z,20.57
2019-03-24T11:40:20.511Z,17.07
2019-03-24T11:42:49.867Z,25.25
2019-03-24T11:45:19.361Z,17.85
2019-03-24T11:47:48.824Z,20.88
2019-03-24T11:50:18.328Z,24.55
2019-03-24T11:52:47.727Z,21.75
2019-03-24T11:55:17.088Z,18.07
2019-03-24T11:57:46.594Z,19.02
2019-03-24T12:00:17.368Z,15.75
2019-03-24T12:02:46.750Z,19.43
2019-03-24T12:05:16.106Z,18.80
2019-03-24T12:07:45.560Z,20.45
2019-03-24T12:10:15.021Z,25.77
2019-03-24T12:12:44.395Z,22.85
2019-03-24T12:15:14.103Z,19.57
2019-03-24T12:17:43.526Z,18.70
2019-03-24T12:20:13.414Z,19.90
2019-03-24T12:22:42.794Z,23.83
2019-03-24T12:25:12.162Z,18.85
2019-03-24T12:27:41.565Z,21.33
2019-03-24T12:30:11.529Z,15.60
2019-03-24T12:32:40.883Z,15.60
2019-03-24T12:35:10.405Z,16.30
2019-03-24T12:37:39.771Z,13.28
2019-03-24T12:40:10.397Z,16.27
2019-03-24T12:42:39.888Z,24.75
2019-03-24T12:45:11.819Z,18.52
2019-03-24T12:47:41.283Z,19.80
2019-03-24T12:50:11.144Z,19.02
2019-03-24T12:52:40.522Z,20.23
2019-03-24T12:55:10.330Z,17.23
2019-03-24T12:57:39.802Z,17.90
2019-03-24T13:00:11.273Z,20.75
2019-03-24T13:02:40.757Z,19.25
2019-03-24T13:05:10.364Z,16.60
2019-03-24T13:07:39.882Z,15.83
2019-03-24T13:10:09.583Z,22.40
2019-03-24T13:12:38.954Z,17.07
2019-03-24T13:15:08.885Z,12.70
2019-03-24T13:17:38.382Z,14.85
2019-03-24T13:20:19.576Z,18.15
2019-03-24T13:22:39.625Z,17.52
2019-03-24T13:25:10.578Z,21.77
2019-03-24T13:27:41.043Z,16.17
2019-03-24T13:30:11.046Z,20.66
2019-03-24T13:32:40.414Z,14.58
2019-03-24T13:35:09.833Z,21.25
2019-03-24T13:37:39.176Z,16.23
2019-03-24T13:40:08.811Z,15.15
2019-03-24T13:42:38.236Z,17.60
2019-03-24T13:45:08.693Z,20.70
2019-03-24T13:47:38.072Z,18.25
2019-03-24T13:50:07.650Z,15.85
2019-03-24T13:52:37.038Z,17.25
2019-03-24T13:55:07.212Z,12.70
2019-03-24T13:57:38.750Z,13.28
2019-03-24T14:00:11.568Z,13.08
2019-03-24T14:02:41.075Z,20.82
2019-03-24T14:05:10.493Z,16.52
2019-03-24T14:07:39.855Z,22.98
2019-03-24T14:10:09.559Z,22.35
2019-03-24T14:12:39.075Z,22.25
2019-03-24T14:15:09.545Z,17.62
2019-03-24T14:17:39.066Z,21.70
2019-03-24T14:20:08.751Z,19.42
2019-03-24T14:22:38.296Z,16.97
2019-03-24T14:25:07.809Z,19.90
2019-03-24T14:27:37.264Z,22.75
2019-03-24T14:30:09.468Z,22.55
2019-03-24T14:32:38.859Z,22.62
2019-03-24T14:35:08.371Z,24.23
2019-03-24T14:37:37.801Z,18.07
2019-03-24T14:40:08.677Z,15.28
2019-03-24T14:42:38.139Z,28.98
2019-03-24T14:45:08.599Z,27.82
2019-03-24T14:47:38.022Z,21.52
2019-03-24T14:50:08.027Z,22.40
2019-03-24T14:52:37.402Z,21.70
2019-03-24T14:55:06.914Z,24.60
2019-03-24T14:57:36.425Z,20.08
2019-03-24T15:00:09.514Z,16.60
2019-03-24T15:02:40.889Z,23.50
2019-03-24T15:05:10.635Z,16.20
2019-03-24T15:07:40.173Z,14.47
2019-03-24T15:10:09.778Z,12.63
2019-03-24T15:12:39.210Z,16.67
2019-03-24T15:15:09.013Z,10.58
2019-03-24T15:17:38.756Z,11.05
2019-03-24T15:20:08.346Z,17.55
2019-03-24T15:22:37.825Z,13.43
2019-03-24T15:25:07.417Z,11.03
2019-03-24T15:27:38.318Z,14.15
2019-03-24T15:30:08.640Z,13.35
2019-03-24T15:32:38.137Z,12.43
2019-03-24T15:35:07.937Z,15.88
2019-03-24T15:37:37.309Z,10.53
2019-03-24T15:40:07.730Z,14.45
2019-03-24T15:42:37.175Z,11.20
2019-03-24T15:45:07.989Z,13.08
2019-03-24T15:47:37.332Z,9.83
2019-03-24T15:50:07.942Z,10.63
2019-03-24T15:52:37.513Z,14.63
2019-03-24T15:55:07.660Z,9.63
2019-03-24T15:57:37.035Z,12.53
2019-03-24T16:00:11.600Z,17.57
2019-03-24T16:02:41.069Z,13.93
2019-03-24T16:05:10.568Z,10.46
2019-03-24T16:07:40.008Z,14.28
2019-03-24T16:10:10.714Z,13.35
2019-03-24T16:12:40.172Z,15.63
2019-03-24T16:15:10.138Z,15.23
2019-03-24T16:17:39.511Z,13.10
2019-03-24T16:20:09.002Z,11.30
2019-03-24T16:22:38.390Z,23.70
2019-03-24T16:25:08.093Z,14.53
2019-03-24T16:27:38.539Z,13.65
2019-03-24T16:30:08.317Z,11.88
2019-03-24T16:32:37.861Z,12.73
2019-03-24T16:35:07.442Z,10.58
2019-03-24T16:37:36.873Z,14.28
2019-03-24T16:40:07.700Z,10.80
2019-03-24T16:42:37.173Z,12.40
2019-03-24T16:45:07.754Z,20.48
2019-03-24T16:47:37.145Z,17.05
2019-03-24T16:50:08.306Z,10.88
2019-03-24T16:52:37.818Z,38.00
2019-03-24T16:55:07.711Z,8.68
2019-03-24T16:57:37.219Z,8.48
2019-03-24T17:00:10.328Z,13.32
2019-03-24T17:02:39.832Z,13.95
2019-03-24T17:05:09.442Z,15.63
2019-03-24T17:07:38.914Z,15.10
2019-03-24T17:10:08.888Z,17.98
2019-03-24T17:12:38.325Z,14.13
2019-03-24T17:15:08.355Z,16.97
2019-03-24T17:17:41.729Z,19.25
2019-03-24T17:20:11.718Z,20.40
2019-03-24T17:22:41.138Z,28.45
2019-03-24T17:25:10.639Z,14.88
2019-03-24T17:27:40.021Z,13.00
2019-03-24T17:30:12.898Z,19.50
2019-03-24T17:32:42.634Z,18.10
2019-03-24T17:35:12.517Z,14.58
2019-03-24T17:37:42.061Z,17.00
2019-03-24T17:40:12.748Z,11.65
2019-03-24T17:42:42.253Z,24.50
2019-03-24T17:45:12.353Z,21.50
2019-03-24T17:47:41.953Z,36.23
2019-03-24T17:50:12.301Z,34.43
2019-03-24T17:52:44.828Z,42.88
2019-03-24T17:55:14.339Z,33.65
2019-03-24T17:57:43.811Z,42.75
2019-03-24T18:00:17.129Z,25.68
2019-03-24T18:02:46.590Z,23.15
2019-03-24T18:05:16.175Z,24.83
2019-03-24T18:07:45.535Z,21.95
2019-03-24T18:10:15.019Z,21.33
2019-03-24T18:12:44.382Z,21.62
2019-03-24T18:15:13.821Z,19.57
2019-03-24T18:17:43.312Z,26.52
2019-03-24T18:20:15.477Z,23.15
2019-03-24T18:22:44.996Z,17.80
2019-03-24T18:25:14.577Z,23.50
2019-03-24T18:27:43.946Z,11.28
2019-03-24T18:30:13.956Z,16.05
2019-03-24T18:32:43.454Z,21.45
2019-03-24T18:35:13.222Z,17.90
2019-03-24T18:37:42.719Z,20.00
2019-03-24T18:40:12.410Z,18.12
2019-03-24T18:42:41.931Z,20.68
2019-03-24T18:45:12.648Z,17.20
2019-03-24T18:47:44.490Z,21.73
2019-03-24T18:50:13.583Z,15.30
2019-03-24T18:52:43.107Z,20.37
2019-03-24T18:55:13.628Z,21.15
2019-03-24T18:57:43.040Z,17.23
2019-03-24T19:00:14.305Z,13.20
2019-03-24T19:02:43.726Z,14.23
2019-03-24T19:05:13.632Z,21.70
2019-03-24T19:07:43.200Z,22.48
2019-03-24T19:10:13.283Z,14.40
2019-03-24T19:12:42.895Z,18.27
2019-03-24T19:15:14.293Z,17.77
2019-03-24T19:17:44.017Z,20.05
2019-03-24T19:20:13.712Z,21.40
2019-03-24T19:22:43.237Z,15.15
2019-03-24T19:25:13.021Z,21.75
2019-03-24T19:27:42.576Z,17.27
2019-03-24T19:30:15.651Z,10.98
2019-03-24T19:35:14.152Z,19.67
2019-03-24T19:37:46.047Z,22.60
2019-03-24T19:40:33.482Z,19.77
2019-03-24T19:43:03.005Z,18.05
2019-03-24T19:45:32.508Z,25.45
2019-03-24T19:48:02.137Z,22.00
2019-03-24T19:50:31.582Z,15.32
2019-03-24T19:53:01.090Z,19.85
2019-03-24T19:55:30.519Z,18.15
2019-03-24T19:58:01.063Z,20.90
2019-03-24T20:00:30.546Z,20.48
2019-03-24T20:03:00.001Z,26.02
2019-03-24T20:05:29.438Z,16.73
2019-03-24T20:08:13.302Z,18.55
2019-03-24T20:10:44.385Z,25.92
2019-03-24T20:13:14.911Z,23.27
2019-03-24T20:15:44.276Z,36.98
2019-03-24T20:18:15.234Z,19.00
2019-03-24T20:20:44.600Z,23.55
2019-03-24T20:23:14.047Z,20.88
2019-03-24T20:25:43.412Z,21.73
2019-03-24T20:28:12.839Z,18.98
2019-03-24T20:30:42.287Z,24.87
2019-03-24T20:33:12.309Z,26.55
2019-03-24T20:35:43.549Z,24.20
2019-03-24T20:38:13.042Z,24.70
2019-03-24T20:40:42.502Z,17.27
2019-03-24T20:43:11.906Z,18.77
2019-03-24T20:45:41.332Z,13.32
2019-03-24T20:48:11.527Z,18.30
2019-03-24T20:50:41.106Z,18.67
2019-03-24T20:53:18.390Z,18.35
2019-03-24T20:55:46.181Z,16.95
2019-03-24T20:58:15.692Z,13.18
2019-03-24T21:00:45.843Z,19.67
2019-03-24T21:03:15.301Z,22.67
2019-03-24T21:05:44.809Z,13.38
2019-03-24T21:08:14.339Z,17.42
2019-03-24T21:10:43.906Z,22.40
2019-03-24T21:13:13.361Z,25.27
2019-03-24T21:15:42.768Z,14.87
2019-03-24T21:18:12.181Z,14.25
2019-03-24T21:20:41.612Z,21.77
2019-03-24T21:23:10.983Z,15.40
2019-03-24T21:25:40.324Z,23.12
2019-03-24T21:28:09.705Z,22.32
2019-03-24T21:30:40.760Z,25.82
2019-03-24T21:33:10.260Z,26.33
2019-03-24T21:35:39.688Z,21.50
2019-03-24T21:38:09.049Z,27.50
2019-03-24T21:40:38.628Z,16.65
2019-03-24T21:43:08.155Z,16.50
2019-03-24T21:45:37.571Z,14.33
2019-03-24T21:48:07.057Z,21.37
2019-03-24T21:50:37.356Z,18.25
2019-03-24T21:53:06.815Z,15.05
2019-03-24T21:55:36.312Z,18.62
2019-03-24T21:58:05.795Z,15.48
2019-03-24T22:00:36.173Z,18.75
2019-03-24T22:03:06.432Z,23.35
2019-03-24T22:05:38.836Z,18.10
2019-03-24T22:08:08.293Z,15.63
2019-03-24T22:10:37.945Z,26.90
2019-03-24T22:13:11.631Z,21.57
2019-03-24T22:15:41.012Z,17.82
2019-03-24T22:18:10.456Z,24.10
2019-03-24T22:20:48.505Z,20.97
2019-03-24T22:23:14.047Z,19.30
2019-03-24T22:25:43.463Z,12.95
2019-03-24T22:28:12.848Z,23.52
2019-03-24T22:30:42.202Z,21.82
2019-03-24T22:33:11.660Z,18.80
2019-03-24T22:35:41.002Z,28.83
2019-03-24T22:38:10.374Z,25.54
2019-03-24T22:40:39.866Z,21.15
2019-03-24T22:43:10.911Z,19.80
2019-03-24T22:45:42.964Z,23.35
2019-03-24T22:48:12.322Z,15.32
2019-03-24T22:50:43.222Z,19.82
2019-03-24T22:53:12.653Z,23.75
2019-03-24T22:55:42.046Z,26.95
2019-03-24T22:58:12.463Z,28.20
2019-03-24T23:00:46.260Z,19.65
2019-03-24T23:03:15.990Z,27.62
2019-03-24T23:05:45.442Z,20.55
2019-03-24T23:08:14.805Z,20.47
2019-03-24T23:10:44.163Z,17.87
2019-03-24T23:13:13.532Z,21.15
2019-03-24T23:15:42.877Z,19.48
2019-03-24T23:18:12.238Z,13.18
2019-03-24T23:20:42.063Z,25.57
2019-03-24T23:23:11.466Z,19.87
2019-03-24T23:25:40.815Z,19.55
2019-03-24T23:28:10.311Z,15.75
2019-03-24T23:30:39.655Z,20.30
2019-03-24T23:33:09.106Z,22.35
2019-03-24T23:35:40.102Z,24.67
2019-03-24T23:38:09.468Z,18.77
2019-03-24T23:40:38.963Z,15.25
2019-03-24T23:43:08.377Z,19.80
2019-03-24T23:45:37.804Z,23.27
2019-03-24T23:48:07.243Z,22.07
2019-03-24T23:50:36.646Z,26.80
2019-03-24T23:53:06.376Z,18.85
2019-03-24T23:55:35.783Z,19.27
2019-03-24T23:58:06.211Z,24.95
